Bg Felixstowe — V2BR7 — position and weather

sailwx.info

Track history (hours):
 
Tides and Currents Weather Stations Pressure Air Temp Water Temp Dewpoint Dewpoint Depression Visibility Wind Speed Wind Dir Waves Ship Positions

Bg Felixstowe

Last reported at 2014-Jul-28 07:07 UTC. Time now 2014-Aug-02 02:48 UTC.
Position N 25°05' W 080°09'.

Length 139 m; draft 6.7 m.

Type: Ship. MMSI: 304906000.

Date/timePositionNaut miles runAvg speedWind from/ knotsBaromVisibWave heightAir tempDewpointWater temp
2014-Jul-28 07:07N 25°05' W 080°09'712.6
2014-Jul-28 06:33N 25°11' W 080°05'1312.4
2014-Jul-28 05:32N 25°23' W 080°00'1212.0
2014-Jul-28 04:33N 25°34' W 080°00'1211.9
2014-Jul-28 03:33N 25°46' W 080°04'5 5.2
2014-Jul-28 02:30N 25°46' W 080°10'0 0.0
2014-Jul-28 01:14N 25°46' W 080°10'0 0.0
2014-Jul-28 00:28N 25°46' W 080°10'0 0.0
2014-Jul-27 22:26N 25°46' W 080°10'0 0.0
2014-Jul-27 20:28N 25°46' W 080°10'0 0.0
2014-Jul-27 19:32N 25°46' W 080°10'0 0.0
2014-Jul-27 18:32N 25°46' W 080°10'0 0.0
2014-Jul-27 17:32N 25°46' W 080°10'0 0.1
2014-Jul-27 16:32N 25°46' W 080°10'0 0.0
2014-Jul-27 15:24N 25°46' W 080°10'0 0.1
2014-Jul-27 14:23N 25°46' W 080°10'1 0.6
2014-Jul-27 13:32N 25°46' W 080°10'9 8.9
2014-Jul-27 12:33N 25°41' W 080°02'  
2014-Jul-21 00:33N 25°32' W 080°00'1211.8
2014-Jul-20 23:33N 25°43' W 080°04'7 6.6
2014-Jul-20 22:34N 25°46' W 080°10'0 0.0
2014-Jul-20 21:18N 25°46' W 080°10'0 0.0
2014-Jul-20 20:27N 25°46' W 080°10'0 0.0
2014-Jul-20 19:20N 25°46' W 080°10'0 0.0
2014-Jul-20 18:26N 25°46' W 080°10'0 0.0
2014-Jul-20 17:31N 25°46' W 080°10'0 0.0
2014-Jul-20 16:31N 25°46' W 080°10'0 0.0
2014-Jul-20 14:30N 25°46' W 080°10'0 0.0
2014-Jul-20 12:29N 25°46' W 080°10'0 0.0
2014-Jul-20 11:33N 25°46' W 080°10'5 5.2
2014-Jul-20 10:33N 25°46' W 080°04'1514.0
2014-Jul-20 09:29N 25°31' W 079°60'  
Track history (hours):
 
Tides and Currents Weather Stations Pressure Air Temp Water Temp Dewpoint Dewpoint Depression Visibility Wind Speed Wind Dir Waves Ship Positions

Bg Felixstowe

Last reported at 2014-Jul-28 07:07 UTC. Time now 2014-Aug-02 02:48 UTC.
Position N 25°05' W 080°09'.

Length 139 m; draft 6.7 m.

Type: Ship. MMSI: 304906000.

Date/timePositionNaut miles runAvg speedWind from/ knotsBaromVisibWave heightAir tempDewpointWater temp
2014-Jul-28 07:07N 25°05' W 080°09'712.6
2014-Jul-28 06:33N 25°11' W 080°05'1312.4
2014-Jul-28 05:32N 25°23' W 080°00'1212.0
2014-Jul-28 04:33N 25°34' W 080°00'1211.9
2014-Jul-28 03:33N 25°46' W 080°04'5 5.2
2014-Jul-28 02:30N 25°46' W 080°10'0 0.0
2014-Jul-28 01:14N 25°46' W 080°10'0 0.0
2014-Jul-28 00:28N 25°46' W 080°10'0 0.0
2014-Jul-27 22:26N 25°46' W 080°10'0 0.0
2014-Jul-27 20:28N 25°46' W 080°10'0 0.0
2014-Jul-27 19:32N 25°46' W 080°10'0 0.0
2014-Jul-27 18:32N 25°46' W 080°10'0 0.0
2014-Jul-27 17:32N 25°46' W 080°10'0 0.1
2014-Jul-27 16:32N 25°46' W 080°10'0 0.0
2014-Jul-27 15:24N 25°46' W 080°10'0 0.1
2014-Jul-27 14:23N 25°46' W 080°10'1 0.6
2014-Jul-27 13:32N 25°46' W 080°10'9 8.9
2014-Jul-27 12:33N 25°41' W 080°02'  
2014-Jul-21 00:33N 25°32' W 080°00'1211.8
2014-Jul-20 23:33N 25°43' W 080°04'7 6.6
2014-Jul-20 22:34N 25°46' W 080°10'0 0.0
2014-Jul-20 21:18N 25°46' W 080°10'0 0.0
2014-Jul-20 20:27N 25°46' W 080°10'0 0.0
2014-Jul-20 19:20N 25°46' W 080°10'0 0.0
2014-Jul-20 18:26N 25°46' W 080°10'0 0.0
2014-Jul-20 17:31N 25°46' W 080°10'0 0.0
2014-Jul-20 16:31N 25°46' W 080°10'0 0.0
2014-Jul-20 14:30N 25°46' W 080°10'0 0.0
2014-Jul-20 12:29N 25°46' W 080°10'0 0.0
2014-Jul-20 11:33N 25°46' W 080°10'5 5.2
2014-Jul-20 10:33N 25°46' W 080°04'1514.0
2014-Jul-20 09:29N 25°31' W 079°60'  

Dump ship's entire track history